KMKL/MKL METAR and TAF weather

Enter ICAO airport designator
Station Type Date Time Source
KMKL METAR 2020/01/23 05:53 UTC NOAA

KMKL 230553Z AUTO 00000KT 10SM OVC110 02/M03 A3018 RMK AO2 SLP223 T00171033 10033 20011 400501067 58005


Station Type Date Time Source
KMKL Decoded METAR 2020/01/23 05:53 UTC NOAA

JACKSON MCKELLAR-SIPES RGNL, TN, United States (KMKL) 35-36N 088-55W 128M
Jan 23, 2020 - 12:53 AM EST / 2020.01.23 0553 UTC
Wind: Calm:0
Visibility: 10 mile(s):0
Sky conditions: overcast
Temperature: 35.1 F (1.7 C)
Dew Point: 26.1 F (-3.3 C)
Relative Humidity: 69%
Pressure (altimeter): 30.18 in. Hg (1022 hPa)
Pressure tendency: 0.01 inches (0.5 hPa) lower than three hours ago
ob: KMKL 230553Z AUTO 00000KT 10SM OVC110 02/M03 A3018 RMK AO2 SLP223 T00171033 10033 20011 400501067 58005
cycle: 6

Station Type Date Time Source
KMKL TAF 2020/01/23 06:33 UTC NOAA

TAF KMKL 230530Z 2306/2406 00000KT P6SM BKN100
FM230700 17004KT P6SM VCSH SCT050 OVC080
FM231000 16006KT P6SM -RA SCT025 OVC050
FM231800 15008KT 4SM -RA BR OVC009
FM232100 14007KT 2SM -RA BR OVC004
FM240500 19004KT 4SM -RA BR OVC003

Example: see airport list